sensor_id;sensor_type;location;lat;lon;timestamp;P1;durP1;ratioP1;P2;durP2;ratioP2
24034;SDS011;12242;50.952;4.678;2023-04-25T00:01:47;8.48;;;2.25;;
24034;SDS011;12242;50.952;4.678;2023-04-25T00:04:15;8.20;;;2.25;;
24034;SDS011;12242;50.952;4.678;2023-04-25T00:06:43;5.72;;;2.13;;
24034;SDS011;12242;50.952;4.678;2023-04-25T00:09:11;7.60;;;2.30;;
24034;SDS011;12242;50.952;4.678;2023-04-25T00:11:40;9.63;;;2.35;;
24034;SDS011;12242;50.952;4.678;2023-04-25T00:14:07;5.18;;;1.92;;
24034;SDS011;12242;50.952;4.678;2023-04-25T00:16:35;6.90;;;2.10;;
24034;SDS011;12242;50.952;4.678;2023-04-25T00:19:02;6.88;;;2.20;;
24034;SDS011;12242;50.952;4.678;2023-04-25T00:21:30;6.63;;;2.53;;
24034;SDS011;12242;50.952;4.678;2023-04-25T00:23:58;7.20;;;2.33;;
24034;SDS011;12242;50.952;4.678;2023-04-25T00:26:26;9.30;;;2.50;;
24034;SDS011;12242;50.952;4.678;2023-04-25T00:28:54;13.32;;;2.97;;
24034;SDS011;12242;50.952;4.678;2023-04-25T00:31:22;6.15;;;2.20;;
24034;SDS011;12242;50.952;4.678;2023-04-25T00:33:50;8.05;;;2.40;;
24034;SDS011;12242;50.952;4.678;2023-04-25T00:36:18;10.00;;;2.30;;
24034;SDS011;12242;50.952;4.678;2023-04-25T00:38:46;7.82;;;2.67;;
24034;SDS011;12242;50.952;4.678;2023-04-25T00:41:14;9.30;;;2.40;;
24034;SDS011;12242;50.952;4.678;2023-04-25T00:43:42;6.25;;;2.45;;
24034;SDS011;12242;50.952;4.678;2023-04-25T00:46:11;7.78;;;2.33;;
24034;SDS011;12242;50.952;4.678;2023-04-25T00:48:39;7.45;;;2.33;;
24034;SDS011;12242;50.952;4.678;2023-04-25T00:51:06;9.93;;;2.63;;
24034;SDS011;12242;50.952;4.678;2023-04-25T00:53:34;6.32;;;2.47;;
24034;SDS011;12242;50.952;4.678;2023-04-25T00:56:01;7.68;;;2.42;;
24034;SDS011;12242;50.952;4.678;2023-04-25T00:58:29;5.40;;;2.15;;
24034;SDS011;12242;50.952;4.678;2023-04-25T01:00:57;8.45;;;2.20;;
24034;SDS011;12242;50.952;4.678;2023-04-25T01:03:25;6.85;;;2.40;;
24034;SDS011;12242;50.952;4.678;2023-04-25T01:05:56;8.48;;;2.40;;
24034;SDS011;12242;50.952;4.678;2023-04-25T01:08:24;7.53;;;2.25;;
24034;SDS011;12242;50.952;4.678;2023-04-25T01:10:54;7.95;;;2.53;;
24034;SDS011;12242;50.952;4.678;2023-04-25T01:13:21;8.52;;;2.33;;
24034;SDS011;12242;50.952;4.678;2023-04-25T01:15:49;13.40;;;2.75;;
24034;SDS011;12242;50.952;4.678;2023-04-25T01:18:17;7.10;;;2.35;;
24034;SDS011;12242;50.952;4.678;2023-04-25T01:20:48;7.03;;;2.35;;
24034;SDS011;12242;50.952;4.678;2023-04-25T01:23:19;9.73;;;2.38;;
24034;SDS011;12242;50.952;4.678;2023-04-25T01:25:48;7.43;;;2.50;;
24034;SDS011;12242;50.952;4.678;2023-04-25T01:28:17;7.93;;;2.20;;
24034;SDS011;12242;50.952;4.678;2023-04-25T01:30:45;10.38;;;2.55;;
24034;SDS011;12242;50.952;4.678;2023-04-25T01:33:14;10.20;;;2.40;;
24034;SDS011;12242;50.952;4.678;2023-04-25T01:35:42;9.20;;;2.10;;
24034;SDS011;12242;50.952;4.678;2023-04-25T01:38:11;8.85;;;2.28;;
24034;SDS011;12242;50.952;4.678;2023-04-25T01:40:39;11.98;;;2.47;;
24034;SDS011;12242;50.952;4.678;2023-04-25T01:43:07;6.40;;;2.25;;
24034;SDS011;12242;50.952;4.678;2023-04-25T01:45:38;10.68;;;2.47;;
24034;SDS011;12242;50.952;4.678;2023-04-25T01:48:08;10.10;;;2.78;;
24034;SDS011;12242;50.952;4.678;2023-04-25T01:50:37;9.13;;;2.35;;
24034;SDS011;12242;50.952;4.678;2023-04-25T01:53:06;10.65;;;2.30;;
24034;SDS011;12242;50.952;4.678;2023-04-25T01:55:35;6.80;;;1.70;;
24034;SDS011;12242;50.952;4.678;2023-04-25T01:58:03;6.93;;;2.30;;
24034;SDS011;12242;50.952;4.678;2023-04-25T02:00:36;8.43;;;2.40;;
24034;SDS011;12242;50.952;4.678;2023-04-25T02:03:05;7.97;;;2.20;;
24034;SDS011;12242;50.952;4.678;2023-04-25T02:05:34;10.68;;;2.50;;
24034;SDS011;12242;50.952;4.678;2023-04-25T02:08:06;14.10;;;2.40;;
24034;SDS011;12242;50.952;4.678;2023-04-25T02:10:35;9.18;;;2.00;;
24034;SDS011;12242;50.952;4.678;2023-04-25T02:13:03;7.25;;;2.17;;
24034;SDS011;12242;50.952;4.678;2023-04-25T02:15:32;8.80;;;2.35;;
24034;SDS011;12242;50.952;4.678;2023-04-25T02:17:59;8.13;;;1.95;;
24034;SDS011;12242;50.952;4.678;2023-04-25T02:20:27;10.60;;;1.80;;
24034;SDS011;12242;50.952;4.678;2023-04-25T02:22:56;7.03;;;1.65;;
24034;SDS011;12242;50.952;4.678;2023-04-25T02:25:24;6.55;;;1.80;;
24034;SDS011;12242;50.952;4.678;2023-04-25T02:27:52;8.02;;;2.00;;
24034;SDS011;12242;50.952;4.678;2023-04-25T02:30:19;8.07;;;2.45;;
24034;SDS011;12242;50.952;4.678;2023-04-25T02:32:47;8.25;;;2.05;;
24034;SDS011;12242;50.952;4.678;2023-04-25T02:35:14;9.30;;;2.00;;
24034;SDS011;12242;50.952;4.678;2023-04-25T02:37:42;7.13;;;1.92;;
24034;SDS011;12242;50.952;4.678;2023-04-25T02:40:10;8.30;;;2.10;;
24034;SDS011;12242;50.952;4.678;2023-04-25T02:42:38;13.80;;;1.95;;
24034;SDS011;12242;50.952;4.678;2023-04-25T02:45:07;11.60;;;2.03;;
24034;SDS011;12242;50.952;4.678;2023-04-25T02:47:35;6.30;;;1.52;;
24034;SDS011;12242;50.952;4.678;2023-04-25T02:50:03;10.27;;;2.05;;
24034;SDS011;12242;50.952;4.678;2023-04-25T02:52:31;8.27;;;1.95;;
24034;SDS011;12242;50.952;4.678;2023-04-25T02:54:59;6.50;;;1.98;;
24034;SDS011;12242;50.952;4.678;2023-04-25T02:57:26;11.10;;;2.00;;
24034;SDS011;12242;50.952;4.678;2023-04-25T02:59:54;10.15;;;2.20;;
24034;SDS011;12242;50.952;4.678;2023-04-25T03:02:22;8.35;;;1.70;;
24034;SDS011;12242;50.952;4.678;2023-04-25T03:04:49;6.45;;;1.73;;
24034;SDS011;12242;50.952;4.678;2023-04-25T03:07:17;9.05;;;2.13;;
24034;SDS011;12242;50.952;4.678;2023-04-25T03:09:44;5.20;;;2.20;;
24034;SDS011;12242;50.952;4.678;2023-04-25T03:12:12;11.43;;;2.17;;
24034;SDS011;12242;50.952;4.678;2023-04-25T03:14:40;6.72;;;1.90;;
24034;SDS011;12242;50.952;4.678;2023-04-25T03:17:07;10.70;;;2.25;;
24034;SDS011;12242;50.952;4.678;2023-04-25T03:19:35;9.18;;;1.92;;
24034;SDS011;12242;50.952;4.678;2023-04-25T03:22:03;8.70;;;1.83;;
24034;SDS011;12242;50.952;4.678;2023-04-25T03:24:30;11.35;;;2.78;;
24034;SDS011;12242;50.952;4.678;2023-04-25T03:26:58;6.10;;;1.88;;
24034;SDS011;12242;50.952;4.678;2023-04-25T03:29:25;13.35;;;2.45;;
24034;SDS011;12242;50.952;4.678;2023-04-25T03:31:54;10.93;;;2.35;;
24034;SDS011;12242;50.952;4.678;2023-04-25T03:34:22;11.70;;;2.42;;
24034;SDS011;12242;50.952;4.678;2023-04-25T03:36:50;16.48;;;2.42;;
24034;SDS011;12242;50.952;4.678;2023-04-25T03:39:18;11.20;;;2.20;;
24034;SDS011;12242;50.952;4.678;2023-04-25T03:41:46;16.15;;;3.05;;
24034;SDS011;12242;50.952;4.678;2023-04-25T03:44:13;12.70;;;2.88;;
24034;SDS011;12242;50.952;4.678;2023-04-25T03:46:41;11.25;;;2.38;;
24034;SDS011;12242;50.952;4.678;2023-04-25T03:49:08;10.82;;;2.58;;
24034;SDS011;12242;50.952;4.678;2023-04-25T03:51:36;10.13;;;2.20;;
24034;SDS011;12242;50.952;4.678;2023-04-25T03:54:04;11.40;;;2.15;;
24034;SDS011;12242;50.952;4.678;2023-04-25T03:56:31;7.97;;;2.20;;
24034;SDS011;12242;50.952;4.678;2023-04-25T03:58:59;11.15;;;2.17;;
24034;SDS011;12242;50.952;4.678;2023-04-25T04:01:27;6.28;;;1.98;;
24034;SDS011;12242;50.952;4.678;2023-04-25T04:03:54;9.35;;;2.08;;
24034;SDS011;12242;50.952;4.678;2023-04-25T04:06:23;8.73;;;2.13;;
24034;SDS011;12242;50.952;4.678;2023-04-25T04:08:50;8.27;;;2.30;;
24034;SDS011;12242;50.952;4.678;2023-04-25T04:11:18;8.85;;;2.08;;
24034;SDS011;12242;50.952;4.678;2023-04-25T04:13:45;7.30;;;2.00;;
24034;SDS011;12242;50.952;4.678;2023-04-25T04:16:13;8.25;;;1.67;;
24034;SDS011;12242;50.952;4.678;2023-04-25T04:18:41;10.18;;;1.80;;
24034;SDS011;12242;50.952;4.678;2023-04-25T04:21:08;8.02;;;2.05;;
24034;SDS011;12242;50.952;4.678;2023-04-25T04:23:36;7.18;;;1.83;;
24034;SDS011;12242;50.952;4.678;2023-04-25T04:26:05;8.18;;;1.95;;
24034;SDS011;12242;50.952;4.678;2023-04-25T04:28:34;5.53;;;1.83;;
24034;SDS011;12242;50.952;4.678;2023-04-25T04:31:02;10.90;;;2.00;;
24034;SDS011;12242;50.952;4.678;2023-04-25T04:33:30;8.73;;;1.83;;
24034;SDS011;12242;50.952;4.678;2023-04-25T04:35:58;6.88;;;1.80;;
24034;SDS011;12242;50.952;4.678;2023-04-25T04:38:25;7.35;;;2.15;;
24034;SDS011;12242;50.952;4.678;2023-04-25T04:40:53;10.88;;;2.00;;
24034;SDS011;12242;50.952;4.678;2023-04-25T04:43:21;12.20;;;1.70;;
24034;SDS011;12242;50.952;4.678;2023-04-25T04:45:49;5.72;;;1.90;;
24034;SDS011;12242;50.952;4.678;2023-04-25T04:48:17;7.80;;;1.85;;
24034;SDS011;12242;50.952;4.678;2023-04-25T04:50:45;10.10;;;2.28;;
24034;SDS011;12242;50.952;4.678;2023-04-25T04:53:12;4.93;;;1.58;;
24034;SDS011;12242;50.952;4.678;2023-04-25T04:55:40;4.45;;;1.42;;
24034;SDS011;12242;50.952;4.678;2023-04-25T04:58:08;5.63;;;1.65;;
24034;SDS011;12242;50.952;4.678;2023-04-25T05:00:35;8.20;;;2.28;;
24034;SDS011;12242;50.952;4.678;2023-04-25T05:03:03;9.48;;;1.83;;
24034;SDS011;12242;50.952;4.678;2023-04-25T05:05:32;6.63;;;1.90;;
24034;SDS011;12242;50.952;4.678;2023-04-25T05:08:00;10.30;;;3.60;;
24034;SDS011;12242;50.952;4.678;2023-04-25T05:10:27;8.68;;;2.95;;
24034;SDS011;12242;50.952;4.678;2023-04-25T05:12:55;14.35;;;2.45;;
24034;SDS011;12242;50.952;4.678;2023-04-25T05:15:22;10.10;;;2.70;;
24034;SDS011;12242;50.952;4.678;2023-04-25T05:17:50;7.95;;;2.30;;
24034;SDS011;12242;50.952;4.678;2023-04-25T05:20:17;11.35;;;3.20;;
24034;SDS011;12242;50.952;4.678;2023-04-25T05:22:45;10.55;;;2.38;;
24034;SDS011;12242;50.952;4.678;2023-04-25T05:25:13;13.35;;;2.25;;
24034;SDS011;12242;50.952;4.678;2023-04-25T05:27:40;10.13;;;2.17;;
24034;SDS011;12242;50.952;4.678;2023-04-25T05:30:08;10.70;;;2.40;;
24034;SDS011;12242;50.952;4.678;2023-04-25T05:32:37;12.15;;;2.90;;
24034;SDS011;12242;50.952;4.678;2023-04-25T05:35:05;12.15;;;3.03;;
24034;SDS011;12242;50.952;4.678;2023-04-25T05:37:34;7.15;;;2.13;;
24034;SDS011;12242;50.952;4.678;2023-04-25T05:40:02;13.73;;;3.05;;
24034;SDS011;12242;50.952;4.678;2023-04-25T05:42:33;14.07;;;4.50;;
24034;SDS011;12242;50.952;4.678;2023-04-25T05:45:01;12.63;;;3.47;;
24034;SDS011;12242;50.952;4.678;2023-04-25T05:47:29;8.93;;;3.15;;
24034;SDS011;12242;50.952;4.678;2023-04-25T05:49:56;9.85;;;2.40;;
24034;SDS011;12242;50.952;4.678;2023-04-25T05:52:24;9.18;;;2.85;;
24034;SDS011;12242;50.952;4.678;2023-04-25T05:54:52;6.88;;;2.20;;
24034;SDS011;12242;50.952;4.678;2023-04-25T05:57:20;8.05;;;2.15;;
24034;SDS011;12242;50.952;4.678;2023-04-25T05:59:49;11.45;;;2.58;;
24034;SDS011;12242;50.952;4.678;2023-04-25T06:02:20;7.18;;;2.05;;
24034;SDS011;12242;50.952;4.678;2023-04-25T06:04:49;7.78;;;2.60;;
24034;SDS011;12242;50.952;4.678;2023-04-25T06:07:18;6.97;;;2.58;;
24034;SDS011;12242;50.952;4.678;2023-04-25T06:09:47;8.30;;;2.42;;
24034;SDS011;12242;50.952;4.678;2023-04-25T06:12:15;8.73;;;2.30;;
24034;SDS011;12242;50.952;4.678;2023-04-25T06:14:42;8.50;;;2.47;;
24034;SDS011;12242;50.952;4.678;2023-04-25T06:17:10;8.70;;;2.22;;
24034;SDS011;12242;50.952;4.678;2023-04-25T06:19:37;12.80;;;2.63;;
24034;SDS011;12242;50.952;4.678;2023-04-25T06:22:05;6.97;;;2.42;;
24034;SDS011;12242;50.952;4.678;2023-04-25T06:24:34;9.35;;;2.20;;
24034;SDS011;12242;50.952;4.678;2023-04-25T06:27:02;12.45;;;2.83;;
24034;SDS011;12242;50.952;4.678;2023-04-25T06:29:29;13.88;;;2.72;;
24034;SDS011;12242;50.952;4.678;2023-04-25T06:31:57;12.13;;;3.03;;
24034;SDS011;12242;50.952;4.678;2023-04-25T06:34:25;9.52;;;2.28;;
24034;SDS011;12242;50.952;4.678;2023-04-25T06:36:52;7.93;;;2.40;;
24034;SDS011;12242;50.952;4.678;2023-04-25T06:39:20;16.65;;;2.90;;
24034;SDS011;12242;50.952;4.678;2023-04-25T06:41:50;8.18;;;2.30;;
24034;SDS011;12242;50.952;4.678;2023-04-25T06:44:20;11.20;;;3.00;;
24034;SDS011;12242;50.952;4.678;2023-04-25T06:46:49;6.78;;;2.35;;
24034;SDS011;12242;50.952;4.678;2023-04-25T06:49:17;7.60;;;2.05;;
24034;SDS011;12242;50.952;4.678;2023-04-25T06:51:45;11.25;;;2.05;;
24034;SDS011;12242;50.952;4.678;2023-04-25T06:54:12;7.13;;;2.17;;
24034;SDS011;12242;50.952;4.678;2023-04-25T06:56:40;6.30;;;1.90;;
24034;SDS011;12242;50.952;4.678;2023-04-25T06:59:08;9.38;;;2.20;;
24034;SDS011;12242;50.952;4.678;2023-04-25T07:01:36;7.88;;;1.75;;
24034;SDS011;12242;50.952;4.678;2023-04-25T07:04:03;5.85;;;1.70;;
24034;SDS011;12242;50.952;4.678;2023-04-25T07:06:32;7.78;;;2.03;;
24034;SDS011;12242;50.952;4.678;2023-04-25T07:08:59;10.80;;;2.13;;
24034;SDS011;12242;50.952;4.678;2023-04-25T07:11:27;9.98;;;1.92;;
24034;SDS011;12242;50.952;4.678;2023-04-25T07:13:54;7.20;;;1.73;;
24034;SDS011;12242;50.952;4.678;2023-04-25T07:16:22;9.73;;;2.03;;
24034;SDS011;12242;50.952;4.678;2023-04-25T07:18:49;7.57;;;1.75;;
24034;SDS011;12242;50.952;4.678;2023-04-25T07:21:17;8.75;;;1.95;;
24034;SDS011;12242;50.952;4.678;2023-04-25T07:23:45;11.57;;;2.28;;
24034;SDS011;12242;50.952;4.678;2023-04-25T07:26:13;9.88;;;2.15;;
24034;SDS011;12242;50.952;4.678;2023-04-25T07:28:40;7.50;;;2.20;;
24034;SDS011;12242;50.952;4.678;2023-04-25T07:31:08;4.68;;;1.65;;
24034;SDS011;12242;50.952;4.678;2023-04-25T07:33:36;10.45;;;1.88;;
24034;SDS011;12242;50.952;4.678;2023-04-25T07:36:03;5.30;;;1.60;;
24034;SDS011;12242;50.952;4.678;2023-04-25T07:38:31;9.30;;;1.73;;
24034;SDS011;12242;50.952;4.678;2023-04-25T07:40:59;7.43;;;1.60;;
24034;SDS011;12242;50.952;4.678;2023-04-25T07:43:27;6.35;;;1.60;;
24034;SDS011;12242;50.952;4.678;2023-04-25T07:45:55;8.88;;;1.55;;
24034;SDS011;12242;50.952;4.678;2023-04-25T07:48:24;11.25;;;1.77;;
24034;SDS011;12242;50.952;4.678;2023-04-25T07:50:51;6.38;;;2.13;;
24034;SDS011;12242;50.952;4.678;2023-04-25T07:53:19;9.00;;;1.83;;
24034;SDS011;12242;50.952;4.678;2023-04-25T07:55:46;7.28;;;1.70;;
24034;SDS011;12242;50.952;4.678;2023-04-25T07:58:15;5.68;;;1.50;;
24034;SDS011;12242;50.952;4.678;2023-04-25T08:00:48;5.32;;;1.38;;
24034;SDS011;12242;50.952;4.678;2023-04-25T08:03:15;6.22;;;1.50;;
24034;SDS011;12242;50.952;4.678;2023-04-25T08:05:43;3.72;;;1.40;;
24034;SDS011;12242;50.952;4.678;2023-04-25T08:08:12;4.55;;;1.27;;
24034;SDS011;12242;50.952;4.678;2023-04-25T08:10:40;6.82;;;1.40;;
24034;SDS011;12242;50.952;4.678;2023-04-25T08:13:08;6.15;;;1.27;;
24034;SDS011;12242;50.952;4.678;2023-04-25T08:15:36;6.95;;;1.08;;
24034;SDS011;12242;50.952;4.678;2023-04-25T08:18:04;7.55;;;1.80;;
24034;SDS011;12242;50.952;4.678;2023-04-25T08:20:32;6.30;;;1.00;;
24034;SDS011;12242;50.952;4.678;2023-04-25T08:23:00;10.55;;;1.38;;
24034;SDS011;12242;50.952;4.678;2023-04-25T08:25:27;7.72;;;1.23;;
24034;SDS011;12242;50.952;4.678;2023-04-25T08:27:55;6.35;;;1.08;;
24034;SDS011;12242;50.952;4.678;2023-04-25T08:30:23;7.72;;;1.17;;
24034;SDS011;12242;50.952;4.678;2023-04-25T08:32:51;5.50;;;1.27;;
24034;SDS011;12242;50.952;4.678;2023-04-25T08:35:19;3.65;;;1.00;;
24034;SDS011;12242;50.952;4.678;2023-04-25T08:37:47;5.15;;;1.17;;
24034;SDS011;12242;50.952;4.678;2023-04-25T08:40:16;6.22;;;1.30;;
24034;SDS011;12242;50.952;4.678;2023-04-25T08:42:43;6.82;;;1.20;;
24034;SDS011;12242;50.952;4.678;2023-04-25T08:45:12;7.78;;;0.95;;
24034;SDS011;12242;50.952;4.678;2023-04-25T08:47:40;5.25;;;1.15;;
24034;SDS011;12242;50.952;4.678;2023-04-25T08:50:09;5.95;;;1.17;;
24034;SDS011;12242;50.952;4.678;2023-04-25T08:52:37;3.25;;;1.20;;
24034;SDS011;12242;50.952;4.678;2023-04-25T08:55:10;7.00;;;1.70;;
24034;SDS011;12242;50.952;4.678;2023-04-25T08:57:42;3.42;;;1.23;;
24034;SDS011;12242;50.952;4.678;2023-04-25T09:00:12;9.00;;;1.40;;
24034;SDS011;12242;50.952;4.678;2023-04-25T09:02:40;5.95;;;1.20;;
24034;SDS011;12242;50.952;4.678;2023-04-25T09:05:10;4.60;;;1.00;;
24034;SDS011;12242;50.952;4.678;2023-04-25T09:07:40;4.78;;;1.17;;
24034;SDS011;12242;50.952;4.678;2023-04-25T09:10:08;6.03;;;1.30;;
24034;SDS011;12242;50.952;4.678;2023-04-25T09:12:35;4.05;;;0.95;;
24034;SDS011;12242;50.952;4.678;2023-04-25T09:17:33;2.72;;;1.02;;
24034;SDS011;12242;50.952;4.678;2023-04-25T09:20:08;4.32;;;1.05;;
24034;SDS011;12242;50.952;4.678;2023-04-25T09:22:37;3.40;;;1.00;;
24034;SDS011;12242;50.952;4.678;2023-04-25T09:25:09;7.60;;;1.23;;
24034;SDS011;12242;50.952;4.678;2023-04-25T09:27:58;5.95;;;1.08;;
24034;SDS011;12242;50.952;4.678;2023-04-25T09:30:30;5.30;;;1.00;;
24034;SDS011;12242;50.952;4.678;2023-04-25T09:33:05;4.72;;;1.35;;
24034;SDS011;12242;50.952;4.678;2023-04-25T09:35:43;4.03;;;0.88;;
24034;SDS011;12242;50.952;4.678;2023-04-25T09:38:13;4.35;;;0.70;;
24034;SDS011;12242;50.952;4.678;2023-04-25T09:40:42;4.30;;;0.80;;
24034;SDS011;12242;50.952;4.678;2023-04-25T09:45:49;4.95;;;0.60;;
24034;SDS011;12242;50.952;4.678;2023-04-25T09:48:24;2.78;;;0.80;;
24034;SDS011;12242;50.952;4.678;2023-04-25T09:51:18;7.70;;;0.60;;
24034;SDS011;12242;50.952;4.678;2023-04-25T09:53:45;2.15;;;0.50;;
24034;SDS011;12242;50.952;4.678;2023-04-25T09:56:18;2.50;;;0.70;;
24034;SDS011;12242;50.952;4.678;2023-04-25T09:58:47;1.80;;;0.60;;
24034;SDS011;12242;50.952;4.678;2023-04-25T10:01:17;3.97;;;0.63;;
24034;SDS011;12242;50.952;4.678;2023-04-25T10:03:45;3.83;;;0.63;;
24034;SDS011;12242;50.952;4.678;2023-04-25T10:06:18;5.63;;;0.70;;
24034;SDS011;12242;50.952;4.678;2023-04-25T10:08:49;4.22;;;0.68;;
24034;SDS011;12242;50.952;4.678;2023-04-25T10:11:20;3.00;;;0.93;;
24034;SDS011;12242;50.952;4.678;2023-04-25T10:13:49;1.15;;;0.50;;
24034;SDS011;12242;50.952;4.678;2023-04-25T10:16:18;2.42;;;0.70;;
24034;SDS011;12242;50.952;4.678;2023-04-25T10:18:47;3.13;;;0.60;;
24034;SDS011;12242;50.952;4.678;2023-04-25T10:21:16;2.38;;;0.50;;
24034;SDS011;12242;50.952;4.678;2023-04-25T10:23:46;1.50;;;0.60;;
24034;SDS011;12242;50.952;4.678;2023-04-25T10:26:15;4.97;;;0.75;;
24034;SDS011;12242;50.952;4.678;2023-04-25T10:28:57;1.30;;;0.45;;
24034;SDS011;12242;50.952;4.678;2023-04-25T10:31:25;1.83;;;0.30;;
24034;SDS011;12242;50.952;4.678;2023-04-25T10:33:53;3.42;;;0.60;;
24034;SDS011;12242;50.952;4.678;2023-04-25T10:36:21;2.78;;;0.68;;
24034;SDS011;12242;50.952;4.678;2023-04-25T10:38:50;2.17;;;0.60;;
24034;SDS011;12242;50.952;4.678;2023-04-25T10:41:20;2.88;;;0.82;;
24034;SDS011;12242;50.952;4.678;2023-04-25T10:43:50;2.40;;;0.60;;
24034;SDS011;12242;50.952;4.678;2023-04-25T10:46:28;2.17;;;0.68;;
24034;SDS011;12242;50.952;4.678;2023-04-25T10:49:00;1.75;;;0.60;;
24034;SDS011;12242;50.952;4.678;2023-04-25T10:51:33;2.15;;;0.60;;
24034;SDS011;12242;50.952;4.678;2023-04-25T10:54:05;5.32;;;0.75;;
24034;SDS011;12242;50.952;4.678;2023-04-25T10:59:12;1.80;;;0.63;;
24034;SDS011;12242;50.952;4.678;2023-04-25T11:01:45;2.30;;;0.60;;
24034;SDS011;12242;50.952;4.678;2023-04-25T11:04:20;1.20;;;0.70;;
24034;SDS011;12242;50.952;4.678;2023-04-25T11:09:37;3.10;;;1.02;;
24034;SDS011;12242;50.952;4.678;2023-04-25T11:12:07;2.88;;;0.70;;
24034;SDS011;12242;50.952;4.678;2023-04-25T11:14:35;3.38;;;0.90;;
24034;SDS011;12242;50.952;4.678;2023-04-25T11:17:03;3.45;;;0.98;;
24034;SDS011;12242;50.952;4.678;2023-04-25T11:19:33;2.85;;;0.80;;
24034;SDS011;12242;50.952;4.678;2023-04-25T11:22:01;2.20;;;0.65;;
24034;SDS011;12242;50.952;4.678;2023-04-25T11:24:31;3.22;;;0.63;;
24034;SDS011;12242;50.952;4.678;2023-04-25T11:27:01;4.35;;;0.77;;
24034;SDS011;12242;50.952;4.678;2023-04-25T11:29:31;4.55;;;0.60;;
24034;SDS011;12242;50.952;4.678;2023-04-25T11:31:59;2.30;;;0.65;;
24034;SDS011;12242;50.952;4.678;2023-04-25T11:34:28;3.45;;;0.82;;
24034;SDS011;12242;50.952;4.678;2023-04-25T11:37:00;2.35;;;0.70;;
24034;SDS011;12242;50.952;4.678;2023-04-25T11:39:29;2.40;;;0.60;;
24034;SDS011;12242;50.952;4.678;2023-04-25T11:41:57;3.17;;;0.65;;
24034;SDS011;12242;50.952;4.678;2023-04-25T11:44:25;5.68;;;0.80;;
24034;SDS011;12242;50.952;4.678;2023-04-25T11:46:53;2.15;;;0.57;;
24034;SDS011;12242;50.952;4.678;2023-04-25T11:49:20;1.58;;;0.57;;
24034;SDS011;12242;50.952;4.678;2023-04-25T11:51:48;2.97;;;0.77;;
24034;SDS011;12242;50.952;4.678;2023-04-25T11:54:16;3.08;;;1.02;;
24034;SDS011;12242;50.952;4.678;2023-04-25T11:56:44;2.30;;;0.68;;
24034;SDS011;12242;50.952;4.678;2023-04-25T11:59:12;7.88;;;1.25;;
24034;SDS011;12242;50.952;4.678;2023-04-25T12:01:41;2.70;;;0.68;;
24034;SDS011;12242;50.952;4.678;2023-04-25T12:04:19;4.18;;;0.68;;
24034;SDS011;12242;50.952;4.678;2023-04-25T12:06:52;1.90;;;0.68;;
24034;SDS011;12242;50.952;4.678;2023-04-25T12:09:27;2.53;;;0.60;;
24034;SDS011;12242;50.952;4.678;2023-04-25T12:11:59;2.03;;;0.80;;
24034;SDS011;12242;50.952;4.678;2023-04-25T12:14:31;4.47;;;1.10;;
24034;SDS011;12242;50.952;4.678;2023-04-25T12:17:01;3.33;;;0.68;;
24034;SDS011;12242;50.952;4.678;2023-04-25T12:19:34;3.33;;;0.88;;
24034;SDS011;12242;50.952;4.678;2023-04-25T12:22:03;3.75;;;0.88;;
24034;SDS011;12242;50.952;4.678;2023-04-25T12:24:45;3.00;;;0.73;;
24034;SDS011;12242;50.952;4.678;2023-04-25T12:27:14;5.50;;;1.02;;
24034;SDS011;12242;50.952;4.678;2023-04-25T12:29:50;1.92;;;0.68;;
24034;SDS011;12242;50.952;4.678;2023-04-25T12:32:18;3.55;;;0.65;;
24034;SDS011;12242;50.952;4.678;2023-04-25T12:34:46;2.70;;;0.93;;
24034;SDS011;12242;50.952;4.678;2023-04-25T12:37:14;2.30;;;0.68;;
24034;SDS011;12242;50.952;4.678;2023-04-25T12:39:43;5.57;;;1.00;;
24034;SDS011;12242;50.952;4.678;2023-04-25T12:42:10;4.47;;;1.00;;
24034;SDS011;12242;50.952;4.678;2023-04-25T12:44:41;1.85;;;0.60;;
24034;SDS011;12242;50.952;4.678;2023-04-25T12:47:08;1.20;;;0.40;;
24034;SDS011;12242;50.952;4.678;2023-04-25T12:49:36;1.85;;;0.40;;
24034;SDS011;12242;50.952;4.678;2023-04-25T12:52:04;1.67;;;0.50;;
24034;SDS011;12242;50.952;4.678;2023-04-25T12:54:31;3.50;;;0.73;;
24034;SDS011;12242;50.952;4.678;2023-04-25T12:56:59;2.80;;;0.50;;
24034;SDS011;12242;50.952;4.678;2023-04-25T12:59:29;3.97;;;0.45;;
24034;SDS011;12242;50.952;4.678;2023-04-25T13:01:57;1.55;;;0.50;;
24034;SDS011;12242;50.952;4.678;2023-04-25T13:04:25;1.95;;;0.28;;
24034;SDS011;12242;50.952;4.678;2023-04-25T13:06:53;3.65;;;0.57;;
24034;SDS011;12242;50.952;4.678;2023-04-25T13:09:21;5.05;;;0.50;;
24034;SDS011;12242;50.952;4.678;2023-04-25T13:11:48;1.85;;;0.40;;
24034;SDS011;12242;50.952;4.678;2023-04-25T13:14:16;5.63;;;0.73;;
24034;SDS011;12242;50.952;4.678;2023-04-25T13:16:43;3.67;;;0.52;;
24034;SDS011;12242;50.952;4.678;2023-04-25T13:19:11;2.20;;;0.50;;
24034;SDS011;12242;50.952;4.678;2023-04-25T13:21:39;0.82;;;0.38;;
24034;SDS011;12242;50.952;4.678;2023-04-25T13:24:07;3.65;;;0.70;;
24034;SDS011;12242;50.952;4.678;2023-04-25T13:26:34;1.98;;;0.50;;
24034;SDS011;12242;50.952;4.678;2023-04-25T13:29:02;3.17;;;0.73;;
24034;SDS011;12242;50.952;4.678;2023-04-25T13:31:31;3.35;;;0.70;;
24034;SDS011;12242;50.952;4.678;2023-04-25T13:33:58;2.55;;;0.80;;
24034;SDS011;12242;50.952;4.678;2023-04-25T13:36:26;2.67;;;0.60;;
24034;SDS011;12242;50.952;4.678;2023-04-25T13:38:54;3.35;;;0.50;;
24034;SDS011;12242;50.952;4.678;2023-04-25T13:41:22;2.60;;;0.50;;
24034;SDS011;12242;50.952;4.678;2023-04-25T13:43:49;2.78;;;0.55;;
24034;SDS011;12242;50.952;4.678;2023-04-25T13:46:18;2.55;;;0.70;;
24034;SDS011;12242;50.952;4.678;2023-04-25T13:49:06;2.08;;;0.85;;
24034;SDS011;12242;50.952;4.678;2023-04-25T13:51:38;10.75;;;4.05;;
24034;SDS011;12242;50.952;4.678;2023-04-25T13:54:06;17.20;;;4.72;;
24034;SDS011;12242;50.952;4.678;2023-04-25T13:56:34;9.90;;;1.95;;
24034;SDS011;12242;50.952;4.678;2023-04-25T13:59:02;18.38;;;6.60;;
24034;SDS011;12242;50.952;4.678;2023-04-25T14:01:29;11.48;;;3.05;;
24034;SDS011;12242;50.952;4.678;2023-04-25T14:03:58;6.45;;;0.88;;
24034;SDS011;12242;50.952;4.678;2023-04-25T14:06:25;2.97;;;0.70;;
24034;SDS011;12242;50.952;4.678;2023-04-25T14:08:54;4.03;;;0.80;;
24034;SDS011;12242;50.952;4.678;2023-04-25T14:11:21;7.82;;;2.22;;
24034;SDS011;12242;50.952;4.678;2023-04-25T14:13:49;4.65;;;1.50;;
24034;SDS011;12242;50.952;4.678;2023-04-25T14:16:17;4.15;;;0.88;;
24034;SDS011;12242;50.952;4.678;2023-04-25T14:18:44;3.67;;;0.60;;
24034;SDS011;12242;50.952;4.678;2023-04-25T14:21:12;1.77;;;0.60;;
24034;SDS011;12242;50.952;4.678;2023-04-25T14:23:40;4.90;;;0.90;;
24034;SDS011;12242;50.952;4.678;2023-04-25T14:26:07;4.72;;;0.73;;
24034;SDS011;12242;50.952;4.678;2023-04-25T14:28:38;7.10;;;1.17;;
24034;SDS011;12242;50.952;4.678;2023-04-25T14:31:06;9.07;;;2.65;;
24034;SDS011;12242;50.952;4.678;2023-04-25T14:33:34;5.75;;;1.75;;
24034;SDS011;12242;50.952;4.678;2023-04-25T14:36:02;3.35;;;1.48;;
24034;SDS011;12242;50.952;4.678;2023-04-25T14:38:30;5.57;;;1.00;;
24034;SDS011;12242;50.952;4.678;2023-04-25T14:40:57;3.55;;;0.65;;
24034;SDS011;12242;50.952;4.678;2023-04-25T14:43:25;1.80;;;0.60;;
24034;SDS011;12242;50.952;4.678;2023-04-25T14:45:53;2.80;;;0.50;;
24034;SDS011;12242;50.952;4.678;2023-04-25T14:48:23;3.70;;;0.70;;
24034;SDS011;12242;50.952;4.678;2023-04-25T14:50:51;4.25;;;1.25;;
24034;SDS011;12242;50.952;4.678;2023-04-25T14:53:20;4.25;;;0.88;;
24034;SDS011;12242;50.952;4.678;2023-04-25T14:55:48;3.33;;;0.80;;
24034;SDS011;12242;50.952;4.678;2023-04-25T14:58:16;1.60;;;0.57;;
24034;SDS011;12242;50.952;4.678;2023-04-25T15:00:44;2.92;;;0.47;;
24034;SDS011;12242;50.952;4.678;2023-04-25T15:03:13;0.90;;;0.40;;
24034;SDS011;12242;50.952;4.678;2023-04-25T15:05:43;2.00;;;0.63;;